Woodland Hills, CA

9:54 AM PST on February 27, 2015 (GMT -0800)
Fallbrook Mall Area | Change Station
CLOSE
Current Station
Personal Weather Station
Location: Woodland Hills, CA
Elevation: 832 ft
Nearby Weather Stations

Elev 832 ft 34.18 °N, 118.62 °W | Updated 22 seconds ago

Overcast
Overcast
57.6 °F
Feels Like 57.6 °F
N
0.0
Wind Variable Wind from North
Gusts 0.0 mph

Today
High -- | Low -- °F
--% Chance of Precip.
Yesterday
High -- | Low -- °F
Precip. -- in
6:25 AM 5:48 PM
Waxing Gibbous, 70% visible
Pressure 29.85 in
Visibility 9.0 miles
Clouds Overcast 2200 ft
Dew Point 50 °F
Humidity 77%
Rainfall 0.00 in
Snow Depth Not available.
UV 1 out of 12
Pollen 8.60 out of 12
Air Quality Not available.
Flu Activity Not available.
METAR KVNY 271651Z 10004KT 9SM OVC022 14/10 A2986 RMK AO2 SLP107 T01390100

More Conditions Fewer Conditions

Pressure 29.85 in
Visibility 9.0 miles
Clouds Overcast 2200 ft
Dew Point 50 °F
Humidity 77%
Rainfall 0.00 in
Snow Depth Not available.
UV 1 out of 12
Pollen 8.60 out of 12
Air Quality Not available.
Flu Activity Not available.
METAR KVNY 271651Z 10004KT 9SM OVC022 14/10 A2986 RMK AO2 SLP107 T01390100

More Conditions Fewer Conditions

10-Day Weather Forecast

Almanac

Astronomy

Feb. 27, 2015 Rise Set
Actual Time
Civil Twilight
Nautical Twilight
Astronomical Twilight
Moon
Length of Visible Light
Length of Day
Tomorrow will be .
, % of the Moon is Illuminated

Today's Extremes

State Highs State Lows

Community

WunderPhotos

Upload Photos

1,800,758 photos uploaded!

WunderBlogs® & News

Nearby

Air Quality

  Air Quality AQ Index Pollutant
Not available.

Snow Depth

Station Depth Elevation

Earthquake Activity

City Distance Mag. Time & Date
Minimum magnitude displayed is 2.5.

Coastal Water Temperatures

Place Temperature

Nearby Weather Stations